Terminal Aerodrome Forecast
Issued by NWS

Home | Current Version | Previous Version | Text Only | Print | Product List | Glossary On
Versions: 1 2 3 4 5 6 7 8 9 10 11 12 13 14 15 16 17 18 19 20 21 22 23 24 25 26 27 28 29 30 31 32 33 34 35 36 37 38 39 40 41 42
000
FTUS45 KSLC 142010 AAA
TAFOGD
TAF AMD
KOGD 142010Z 1420/1518 31005KT 6SM HZ FEW020
     FM150200 17006KT 4SM BR SCT020=

USA.gov is the U.S. government's official web portal to all federal, state and local government web resources and services.